Etusivu
METAR-TAF:

METAR-TAF

Lentoasemat :

Angoon, Alaska, Yhdysvallat

Leveyspiiri: 57-30N, Pituuspiiri: 134-35W, korkeus merenpinnasta: 0 m

Tämänhetkinen sää

Tämä raportti tehtiin 37 minuuttia sitten, kello 17.56 UTC
Tuuli 6 kn koillisesta
Lämpötila 3°C
Kosteus 100%
Ilmanpaine 1005 hPa
Näkyvyys: 16.1 km
Hajonneita pilviä 1900 ft:n korkeudessa
Pilvistä 2700 ft:n korkeudessa

METAR: PAGN 121756Z AUTO 05006KT 10SM BKN019 OVC027 03/03 A2969 RMK AO2 RAE45 SLP041 P0000 60005 T00330028 10039 20033 53012

Aika: 09:33 (18:33 UTC)


TAF: puuttuu

Säähavainnot ja -ennusteet yli 4000 lentoasemalta (METAR- ja TAF-raportit).

Käytössä olevat sääasemat on merkitty karttaan keltaisilla ja punaisilla pisteillä.

Aseta hiiri pisteen päälle nähdäksesi sääaseman nimen.

Klikkaa sitten nähdäksesi säähavainnot ja -ennusteet.

Kartan vaihtaminen: klikkaa mustalla rastilla varustettuja vihreitä pisteitä, niin voit zoomata sisään; viivalla varustettua vihreää pistettä, niin voit zoomata ulos tai vihreitä nuolia, niin pääset viereisille kartoille.


METAR-TAF: